createdAt,value
2022-07-30T00:00:54.224Z,25.03
2022-07-30T00:03:22.188Z,26.97
2022-07-30T00:05:50.074Z,25.27
2022-07-30T00:08:17.575Z,26.67
2022-07-30T00:10:45.121Z,27.83
2022-07-30T00:13:14.265Z,23.83
2022-07-30T00:15:43.329Z,24.13
2022-07-30T00:18:11.945Z,24.50
2022-07-30T00:20:42.779Z,24.07
2022-07-30T00:23:12.045Z,22.97
2022-07-30T00:25:39.589Z,24.93
2022-07-30T00:28:07.857Z,23.57
2022-07-30T00:30:35.429Z,23.07
2022-07-30T00:33:04.805Z,22.47
2022-07-30T00:35:35.879Z,24.80
2022-07-30T00:38:05.518Z,24.07
2022-07-30T00:40:33.100Z,23.23
2022-07-30T00:43:00.709Z,23.63
2022-07-30T00:45:28.623Z,25.13
2022-07-30T00:47:56.174Z,25.03
2022-07-30T00:50:25.060Z,25.23
2022-07-30T00:52:52.634Z,26.10
2022-07-30T00:55:20.374Z,27.83
2022-07-30T00:57:47.934Z,24.70
2022-07-30T01:00:17.257Z,24.60
2022-07-30T01:02:44.861Z,27.43
2022-07-30T01:05:13.145Z,24.83
2022-07-30T01:07:45.042Z,27.60
2022-07-30T01:10:14.210Z,28.13
2022-07-30T01:12:42.503Z,27.20
2022-07-30T01:15:11.223Z,25.70
2022-07-30T01:17:39.026Z,24.60
2022-07-30T01:20:10.968Z,27.47
2022-07-30T01:22:48.973Z,24.93
2022-07-30T01:25:20.213Z,24.87
2022-07-30T01:27:51.871Z,23.70
2022-07-30T01:30:22.144Z,25.53
2022-07-30T01:32:50.569Z,25.80
2022-07-30T01:35:19.858Z,30.07
2022-07-30T01:37:48.054Z,23.63
2022-07-30T01:40:16.091Z,23.00
2022-07-30T01:42:47.306Z,29.10
2022-07-30T01:45:16.957Z,25.83
2022-07-30T01:47:44.775Z,24.27
2022-07-30T01:50:14.304Z,28.20
2022-07-30T01:52:44.644Z,24.70
2022-07-30T01:55:18.179Z,24.13
2022-07-30T01:57:46.745Z,24.60
2022-07-30T02:00:16.141Z,22.57
2022-07-30T02:02:49.414Z,25.23
2022-07-30T02:05:19.806Z,23.03
2022-07-30T02:07:53.808Z,25.60
2022-07-30T02:10:29.443Z,25.43
2022-07-30T02:13:02.281Z,27.50
2022-07-30T02:15:35.502Z,24.97
2022-07-30T02:18:05.513Z,23.83
2022-07-30T02:20:35.848Z,24.90
2022-07-30T02:23:08.040Z,24.00
2022-07-30T02:25:37.037Z,23.60
2022-07-30T02:28:17.808Z,24.77
2022-07-30T02:30:49.615Z,24.30
2022-07-30T02:33:18.471Z,23.17
2022-07-30T02:35:46.395Z,26.40
2022-07-30T02:38:16.930Z,24.13
2022-07-30T02:40:45.265Z,28.67
2022-07-30T02:43:13.022Z,26.87
2022-07-30T02:45:41.528Z,24.93
2022-07-30T02:48:11.449Z,24.97
2022-07-30T02:50:59.436Z,24.27
2022-07-30T02:53:28.211Z,24.47
2022-07-30T02:55:57.191Z,24.57
2022-07-30T02:58:26.266Z,24.73
2022-07-30T03:00:55.996Z,26.00
2022-07-30T03:03:28.919Z,25.50
2022-07-30T03:05:57.620Z,25.07
2022-07-30T03:08:27.762Z,26.40
2022-07-30T03:10:56.257Z,26.27
2022-07-30T03:13:25.805Z,25.57
2022-07-30T03:15:55.888Z,25.03
2022-07-30T03:18:25.778Z,26.93
2022-07-30T03:20:56.341Z,32.23
2022-07-30T03:23:24.589Z,26.00
2022-07-30T03:25:56.102Z,29.07
2022-07-30T03:28:24.634Z,27.87
2022-07-30T03:30:52.548Z,29.60
2022-07-30T03:33:20.418Z,26.00
2022-07-30T03:35:51.222Z,25.57
2022-07-30T03:38:19.347Z,24.37
2022-07-30T03:40:47.285Z,26.93
2022-07-30T03:43:32.785Z,26.37
2022-07-30T03:46:04.118Z,30.40
2022-07-30T03:48:35.511Z,24.63
2022-07-30T03:51:07.533Z,26.23
2022-07-30T03:53:35.230Z,24.30
2022-07-30T03:56:25.626Z,24.63
2022-07-30T03:59:02.939Z,31.63
2022-07-30T04:01:30.662Z,27.47
2022-07-30T04:04:07.378Z,30.80
2022-07-30T04:06:39.656Z,42.33
2022-07-30T04:09:08.339Z,26.97
2022-07-30T04:11:40.759Z,33.60
2022-07-30T04:14:12.109Z,29.63
2022-07-30T04:16:47.013Z,25.57
2022-07-30T04:19:21.309Z,27.40
2022-07-30T04:21:52.034Z,23.97
2022-07-30T04:24:20.048Z,23.80
2022-07-30T04:26:48.861Z,25.53
2022-07-30T04:29:21.368Z,28.10
2022-07-30T04:31:52.740Z,26.47
2022-07-30T04:34:29.405Z,23.97
2022-07-30T04:36:59.252Z,23.70
2022-07-30T04:39:29.414Z,23.20
2022-07-30T04:41:56.938Z,25.67
2022-07-30T04:44:35.618Z,25.63
2022-07-30T04:47:22.871Z,24.90
2022-07-30T04:50:07.259Z,24.40
2022-07-30T04:52:36.964Z,25.53
2022-07-30T04:55:08.285Z,26.87
2022-07-30T04:57:38.937Z,25.20
2022-07-30T05:00:07.631Z,27.17
2022-07-30T05:02:39.197Z,24.00
2022-07-30T05:05:08.513Z,27.93
2022-07-30T05:07:38.116Z,24.57
2022-07-30T05:10:07.293Z,24.90
2022-07-30T05:12:37.450Z,25.30
2022-07-30T05:15:06.136Z,25.20
2022-07-30T05:17:33.903Z,24.97
2022-07-30T05:20:04.476Z,23.20
2022-07-30T05:22:50.817Z,23.03
2022-07-30T05:25:19.907Z,24.17
2022-07-30T05:27:48.241Z,23.17
2022-07-30T05:30:16.494Z,24.83
2022-07-30T05:32:48.250Z,23.20
2022-07-30T05:35:16.097Z,28.80
2022-07-30T05:37:45.142Z,23.37
2022-07-30T05:40:13.556Z,22.60
2022-07-30T05:43:07.856Z,22.93
2022-07-30T05:45:35.431Z,22.07
2022-07-30T05:48:03.140Z,23.13
2022-07-30T05:50:30.891Z,21.87
2022-07-30T05:52:59.915Z,22.73
2022-07-30T05:55:47.415Z,23.40
2022-07-30T05:58:36.675Z,22.90
2022-07-30T06:01:04.318Z,24.00
2022-07-30T06:03:33.850Z,23.63
2022-07-30T06:06:23.335Z,23.60
2022-07-30T06:08:52.755Z,23.93
2022-07-30T06:11:20.519Z,24.20
2022-07-30T06:13:52.024Z,24.97
2022-07-30T06:16:19.964Z,26.10
2022-07-30T06:18:47.546Z,26.27
2022-07-30T06:21:25.781Z,25.47
2022-07-30T06:24:09.800Z,24.97
2022-07-30T06:26:41.322Z,25.90
2022-07-30T06:29:09.619Z,24.37
2022-07-30T06:31:41.481Z,23.50
2022-07-30T06:34:10.953Z,23.53
2022-07-30T06:36:41.956Z,23.13
2022-07-30T06:39:53.849Z,25.10
2022-07-30T06:42:24.454Z,26.10
2022-07-30T06:45:27.182Z,27.77
2022-07-30T06:48:14.455Z,26.67
2022-07-30T06:50:42.726Z,27.80
2022-07-30T06:53:11.087Z,28.43
2022-07-30T06:56:08.982Z,27.80
2022-07-30T06:58:47.095Z,26.53
2022-07-30T07:01:33.650Z,26.20
2022-07-30T07:04:01.765Z,26.87
2022-07-30T07:06:29.351Z,27.83
2022-07-30T07:08:57.163Z,25.73
2022-07-30T07:11:34.246Z,27.23
2022-07-30T07:14:06.858Z,26.17
2022-07-30T07:16:36.167Z,26.30
2022-07-30T07:20:00.336Z,25.43
2022-07-30T07:22:11.893Z,24.70
2022-07-30T07:24:39.634Z,25.60
2022-07-30T07:27:15.358Z,24.20
2022-07-30T07:30:05.673Z,24.73
2022-07-30T07:32:32.549Z,26.20
2022-07-30T07:35:00.105Z,25.30
2022-07-30T07:37:27.814Z,25.73
2022-07-30T07:39:56.110Z,25.83
2022-07-30T07:42:25.157Z,25.40
2022-07-30T07:44:53.967Z,26.73
2022-07-30T07:47:21.573Z,30.47
2022-07-30T07:50:04.302Z,30.80
2022-07-30T07:52:31.967Z,29.00
2022-07-30T07:54:59.470Z,26.75
2022-07-30T07:57:31.350Z,27.92
2022-07-30T07:59:59.443Z,28.60
2022-07-30T08:02:28.227Z,28.85
2022-07-30T08:05:00.860Z,28.10
2022-07-30T08:07:57.622Z,29.17
2022-07-30T08:10:57.145Z,28.52
2022-07-30T08:13:48.865Z,28.65
2022-07-30T08:16:38.627Z,28.75
2022-07-30T08:19:27.153Z,26.63
2022-07-30T08:22:23.910Z,27.40
2022-07-30T08:24:51.475Z,26.88
2022-07-30T08:27:19.125Z,27.75
2022-07-30T08:29:48.129Z,27.80
2022-07-30T08:32:18.517Z,26.98
2022-07-30T08:34:47.079Z,26.98
2022-07-30T08:37:15.729Z,27.73
2022-07-30T08:39:43.462Z,27.83
2022-07-30T08:42:11.221Z,28.85
2022-07-30T08:44:39.154Z,28.70
2022-07-30T08:47:09.044Z,28.05
2022-07-30T08:49:55.745Z,28.70
2022-07-30T08:52:27.702Z,28.13
2022-07-30T08:55:01.835Z,28.60
2022-07-30T08:57:30.878Z,28.80
2022-07-30T09:00:01.590Z,27.50
2022-07-30T09:02:32.563Z,28.23
2022-07-30T09:05:03.754Z,27.20
2022-07-30T09:07:33.483Z,28.73
2022-07-30T09:10:02.056Z,27.73
2022-07-30T09:12:35.672Z,28.95
2022-07-30T09:15:10.116Z,28.33
2022-07-30T09:17:51.097Z,27.50
2022-07-30T09:20:20.109Z,26.75
2022-07-30T09:22:50.107Z,27.70
2022-07-30T09:25:45.842Z,26.52
2022-07-30T09:28:34.194Z,25.38
2022-07-30T09:31:24.905Z,26.85
2022-07-30T09:34:27.081Z,28.05
2022-07-30T09:37:01.501Z,27.77
2022-07-30T09:39:59.493Z,26.70
2022-07-30T09:43:07.136Z,26.83
2022-07-30T09:45:35.558Z,26.33
2022-07-30T09:48:04.098Z,26.13
2022-07-30T09:50:33.314Z,26.63
2022-07-30T09:53:08.054Z,26.98
2022-07-30T09:55:41.885Z,26.23
2022-07-30T09:58:13.047Z,26.15
2022-07-30T10:00:48.431Z,26.38
2022-07-30T10:03:46.607Z,27.10
2022-07-30T10:06:38.077Z,25.70
2022-07-30T10:09:27.320Z,25.00
2022-07-30T10:11:55.696Z,23.55
2022-07-30T10:14:31.346Z,21.77
2022-07-30T10:17:00.370Z,22.40
2022-07-30T10:19:40.106Z,20.50
2022-07-30T10:22:29.689Z,20.42
2022-07-30T10:25:19.406Z,19.88
2022-07-30T10:28:07.019Z,19.05
2022-07-30T10:30:34.873Z,17.95
2022-07-30T10:33:06.316Z,17.38
2022-07-30T10:35:38.333Z,17.50
2022-07-30T10:38:13.974Z,18.05
2022-07-30T10:40:49.749Z,18.02
2022-07-30T10:43:36.184Z,17.70
2022-07-30T10:46:09.202Z,17.65
2022-07-30T10:48:48.180Z,16.80
2022-07-30T10:51:25.344Z,16.77
2022-07-30T10:54:03.494Z,16.83
2022-07-30T10:56:31.086Z,17.00
2022-07-30T10:59:03.340Z,17.52
2022-07-30T11:02:07.651Z,18.02
2022-07-30T11:04:35.512Z,19.15
2022-07-30T11:07:29.464Z,17.85
2022-07-30T11:10:08.759Z,18.40
2022-07-30T11:12:54.373Z,19.80
2022-07-30T11:15:22.645Z,19.02
2022-07-30T11:18:11.400Z,19.20
2022-07-30T11:20:40.598Z,20.70
2022-07-30T11:23:14.265Z,19.48
2022-07-30T11:25:51.185Z,20.13
2022-07-30T11:28:37.453Z,18.55
2022-07-30T11:31:10.086Z,19.50
2022-07-30T11:33:39.147Z,19.15
2022-07-30T11:36:10.634Z,19.35
2022-07-30T11:38:59.934Z,18.17
2022-07-30T11:41:36.094Z,17.75
2022-07-30T11:44:29.277Z,18.40
2022-07-30T11:46:57.029Z,17.35
2022-07-30T11:49:24.597Z,18.10
2022-07-30T11:51:52.219Z,18.85
2022-07-30T11:54:19.803Z,18.38
2022-07-30T11:56:53.187Z,18.73
2022-07-30T11:59:20.806Z,17.73
2022-07-30T12:01:52.801Z,17.95
2022-07-30T12:04:20.588Z,18.38
2022-07-30T12:06:49.182Z,17.50
2022-07-30T12:09:23.598Z,18.58
2022-07-30T12:11:57.048Z,17.38
2022-07-30T12:14:24.690Z,17.25
2022-07-30T12:16:54.047Z,17.70
2022-07-30T12:19:21.826Z,17.38
2022-07-30T12:21:53.315Z,17.00
2022-07-30T12:24:26.434Z,17.58
2022-07-30T12:26:54.211Z,17.92
2022-07-30T12:29:23.005Z,17.20
2022-07-30T12:31:53.445Z,16.98
2022-07-30T12:34:21.841Z,17.50
2022-07-30T12:36:49.485Z,17.17
2022-07-30T12:39:21.129Z,17.20
2022-07-30T12:41:50.391Z,17.90
2022-07-30T12:44:38.625Z,17.20
2022-07-30T12:47:07.718Z,17.20
2022-07-30T12:49:36.583Z,17.40
2022-07-30T12:52:13.268Z,18.02
2022-07-30T12:54:46.146Z,16.85
2022-07-30T12:57:13.633Z,17.00
2022-07-30T12:59:42.478Z,17.08
2022-07-30T13:02:10.017Z,17.02
2022-07-30T13:04:59.160Z,17.90
2022-07-30T13:07:53.936Z,16.80
2022-07-30T13:10:21.669Z,16.98
2022-07-30T13:12:49.167Z,17.02
2022-07-30T13:15:22.003Z,16.58
2022-07-30T13:17:50.296Z,16.48
2022-07-30T13:20:18.435Z,17.00
2022-07-30T13:22:46.306Z,17.08
2022-07-30T13:25:14.091Z,16.73
2022-07-30T13:27:41.561Z,16.90
2022-07-30T13:30:10.560Z,16.15
2022-07-30T13:32:39.447Z,16.13
2022-07-30T13:35:07.688Z,16.70
2022-07-30T13:37:37.616Z,15.80
2022-07-30T13:40:06.893Z,17.30
2022-07-30T13:42:34.847Z,16.70
2022-07-30T13:45:02.457Z,16.77
2022-07-30T13:47:29.955Z,17.00
2022-07-30T13:49:58.779Z,16.90
2022-07-30T13:52:26.580Z,16.67
2022-07-30T13:54:54.464Z,16.83
2022-07-30T13:57:22.020Z,16.80
2022-07-30T13:59:49.625Z,16.70
2022-07-30T14:02:17.501Z,16.90
2022-07-30T14:04:45.077Z,17.42
2022-07-30T14:07:13.965Z,16.58
2022-07-30T14:09:47.056Z,16.95
2022-07-30T14:12:16.049Z,17.25
2022-07-30T14:14:43.582Z,16.73
2022-07-30T14:17:11.155Z,16.52
2022-07-30T14:19:41.196Z,17.27
2022-07-30T14:22:08.931Z,17.63
2022-07-30T14:24:37.725Z,17.50
2022-07-30T14:27:05.969Z,17.30
2022-07-30T14:29:33.842Z,16.50
2022-07-30T14:32:01.406Z,16.63
2022-07-30T14:34:29.105Z,16.53
2022-07-30T14:36:56.631Z,16.60
2022-07-30T14:39:24.893Z,17.20
2022-07-30T14:41:55.781Z,16.87
2022-07-30T14:44:23.896Z,16.43
2022-07-30T14:46:52.663Z,14.30
2022-07-30T14:49:20.780Z,17.17
2022-07-30T14:51:48.500Z,16.63
2022-07-30T14:54:16.498Z,16.27
2022-07-30T14:56:44.060Z,17.00
2022-07-30T14:59:14.355Z,16.23
2022-07-30T15:01:42.154Z,15.98
2022-07-30T15:04:11.402Z,14.20
2022-07-30T15:06:40.708Z,13.45
2022-07-30T15:09:08.831Z,13.63
2022-07-30T15:12:04.310Z,13.35
2022-07-30T15:14:26.875Z,14.95
2022-07-30T15:16:59.374Z,15.35
2022-07-30T15:19:30.938Z,15.07
2022-07-30T15:21:58.895Z,15.65
2022-07-30T15:24:26.976Z,14.57
2022-07-30T15:26:55.855Z,14.90
2022-07-30T15:29:27.190Z,14.73
2022-07-30T15:31:54.733Z,14.90
2022-07-30T15:34:22.393Z,14.10
2022-07-30T15:36:49.879Z,14.77
2022-07-30T15:39:17.479Z,15.25
2022-07-30T15:41:45.988Z,14.90
2022-07-30T15:44:14.750Z,15.60
2022-07-30T15:46:43.574Z,15.70
2022-07-30T15:49:11.167Z,15.75
2022-07-30T15:51:43.725Z,15.50
2022-07-30T15:54:11.306Z,15.75
2022-07-30T15:56:38.921Z,15.50
2022-07-30T15:59:07.081Z,15.95
2022-07-30T16:01:34.666Z,16.45
2022-07-30T16:04:03.930Z,15.77
2022-07-30T16:06:32.324Z,16.02
2022-07-30T16:09:00.163Z,16.38
2022-07-30T16:11:27.730Z,15.10
2022-07-30T16:14:00.558Z,15.30
2022-07-30T16:16:28.201Z,15.00
2022-07-30T16:18:55.880Z,15.02
2022-07-30T16:21:24.795Z,15.43
2022-07-30T16:23:53.582Z,15.40
2022-07-30T16:26:21.577Z,15.75
2022-07-30T16:28:49.304Z,15.50
2022-07-30T16:31:17.072Z,15.10
2022-07-30T16:33:44.868Z,15.68
2022-07-30T16:36:14.167Z,15.77
2022-07-30T16:38:43.079Z,15.18
2022-07-30T16:41:13.366Z,15.32
2022-07-30T16:43:41.832Z,14.63
2022-07-30T16:46:10.803Z,15.35
2022-07-30T16:48:38.313Z,15.07
2022-07-30T16:51:06.942Z,14.52
2022-07-30T16:53:36.277Z,14.45
2022-07-30T16:56:05.866Z,14.68
2022-07-30T16:58:33.699Z,14.13
2022-07-30T17:01:01.507Z,14.30
2022-07-30T17:03:29.143Z,14.60
2022-07-30T17:05:56.655Z,14.95
2022-07-30T17:08:24.656Z,14.40
2022-07-30T17:10:52.926Z,14.13
2022-07-30T17:13:22.617Z,14.83
2022-07-30T17:15:50.213Z,14.27
2022-07-30T17:18:17.869Z,14.30
2022-07-30T17:20:45.470Z,14.43
2022-07-30T17:23:13.566Z,14.40
2022-07-30T17:25:41.103Z,13.77
2022-07-30T17:28:08.701Z,14.30
2022-07-30T17:30:37.569Z,13.60
2022-07-30T17:33:06.218Z,14.27
2022-07-30T17:35:34.133Z,14.03
2022-07-30T17:38:01.973Z,13.60
2022-07-30T17:40:31.598Z,13.60
2022-07-30T17:43:03.390Z,13.90
2022-07-30T17:45:31.583Z,13.30
2022-07-30T17:48:01.425Z,13.73
2022-07-30T17:50:29.320Z,14.40
2022-07-30T17:52:56.888Z,13.90
2022-07-30T17:55:24.634Z,14.37
2022-07-30T17:57:52.192Z,13.60
2022-07-30T18:00:19.741Z,13.00
2022-07-30T18:02:47.285Z,13.93
2022-07-30T18:05:16.311Z,14.10
2022-07-30T18:07:44.672Z,13.73
2022-07-30T18:10:12.716Z,13.80
2022-07-30T18:12:48.899Z,13.70
2022-07-30T18:15:17.439Z,14.10
2022-07-30T18:17:45.585Z,13.50
2022-07-30T18:20:13.286Z,14.23
2022-07-30T18:22:42.250Z,14.03
2022-07-30T18:25:18.760Z,14.43
2022-07-30T18:27:47.238Z,14.17
2022-07-30T18:30:15.230Z,14.33
2022-07-30T18:32:42.765Z,13.97
2022-07-30T18:35:14.165Z,14.40
2022-07-30T18:37:45.767Z,14.70
2022-07-30T18:40:14.922Z,14.87
2022-07-30T18:42:42.999Z,15.13
2022-07-30T18:45:13.773Z,14.77
2022-07-30T18:47:41.818Z,14.40
2022-07-30T18:50:09.956Z,14.50
2022-07-30T18:52:37.583Z,16.07
2022-07-30T18:55:08.179Z,15.63
2022-07-30T18:57:36.154Z,17.17
2022-07-30T19:00:05.777Z,16.70
2022-07-30T19:02:35.481Z,16.57
2022-07-30T19:05:03.027Z,16.20
2022-07-30T19:07:30.832Z,16.10
2022-07-30T19:10:20.194Z,15.63
2022-07-30T19:12:47.731Z,15.63
2022-07-30T19:15:15.371Z,16.07
2022-07-30T19:17:46.280Z,15.90
2022-07-30T19:20:14.531Z,15.73
2022-07-30T19:22:46.693Z,14.90
2022-07-30T19:25:14.720Z,15.10
2022-07-30T19:27:43.811Z,14.67
2022-07-30T19:30:12.566Z,14.53
2022-07-30T19:32:40.391Z,14.90
2022-07-30T19:35:13.273Z,13.93
2022-07-30T19:37:42.289Z,14.67
2022-07-30T19:40:10.920Z,14.10
2022-07-30T19:42:41.529Z,14.70
2022-07-30T19:45:13.330Z,14.57
2022-07-30T19:47:42.417Z,14.23
2022-07-30T19:50:11.535Z,15.20
2022-07-30T19:52:39.496Z,15.43
2022-07-30T19:55:30.860Z,14.30
2022-07-30T19:57:56.195Z,15.20
2022-07-30T20:00:26.351Z,15.10
2022-07-30T20:02:54.120Z,14.87
2022-07-30T20:05:24.678Z,15.00
2022-07-30T20:07:52.713Z,14.93
2022-07-30T20:10:20.301Z,15.40
2022-07-30T20:12:49.658Z,15.07
2022-07-30T20:15:18.298Z,14.80
2022-07-30T20:17:47.210Z,15.10
2022-07-30T20:20:14.845Z,14.43
2022-07-30T20:22:42.445Z,14.93
2022-07-30T20:25:11.113Z,15.13
2022-07-30T20:27:41.265Z,14.90
2022-07-30T20:30:11.921Z,14.87
2022-07-30T20:32:44.671Z,15.33
2022-07-30T20:35:15.894Z,15.00
2022-07-30T20:37:55.596Z,14.90
2022-07-30T20:40:26.824Z,14.50
2022-07-30T20:42:55.009Z,14.53
2022-07-30T20:45:24.766Z,13.70
2022-07-30T20:47:57.369Z,13.83
2022-07-30T20:50:30.636Z,14.23
2022-07-30T20:52:59.165Z,14.37
2022-07-30T20:55:26.810Z,14.40
2022-07-30T20:57:58.075Z,14.43
2022-07-30T21:00:49.817Z,14.60
2022-07-30T21:03:21.480Z,14.30
2022-07-30T21:05:52.866Z,14.10
2022-07-30T21:08:21.168Z,14.40
2022-07-30T21:10:53.074Z,15.10
2022-07-30T21:13:22.859Z,14.63
2022-07-30T21:16:03.059Z,15.47
2022-07-30T21:18:31.604Z,16.10
2022-07-30T21:21:04.976Z,16.50
2022-07-30T21:23:33.539Z,16.13
2022-07-30T21:26:04.936Z,16.03
2022-07-30T21:28:35.136Z,16.70
2022-07-30T21:31:03.970Z,16.67
2022-07-30T21:33:34.787Z,16.77
2022-07-30T21:36:03.782Z,16.77
2022-07-30T21:38:31.764Z,17.03
2022-07-30T21:41:00.141Z,17.40
2022-07-30T21:43:29.982Z,18.30
2022-07-30T21:45:58.117Z,17.90
2022-07-30T21:48:26.014Z,17.70
2022-07-30T21:50:54.419Z,17.80
2022-07-30T21:53:29.963Z,17.90
2022-07-30T21:56:12.067Z,17.87
2022-07-30T21:58:40.784Z,18.00
2022-07-30T22:01:17.467Z,17.60
2022-07-30T22:04:03.379Z,17.60
2022-07-30T22:06:34.352Z,17.00
2022-07-30T22:09:18.322Z,16.57
2022-07-30T22:11:50.919Z,17.00
2022-07-30T22:14:18.452Z,16.90
2022-07-30T22:16:46.996Z,17.53
2022-07-30T22:19:15.025Z,17.37
2022-07-30T22:21:42.827Z,17.03
2022-07-30T22:24:29.154Z,17.60
2022-07-30T22:27:00.004Z,17.63
2022-07-30T22:29:34.121Z,17.17
2022-07-30T22:32:03.906Z,17.90
2022-07-30T22:34:31.989Z,17.73
2022-07-30T22:36:59.516Z,17.30
2022-07-30T22:39:31.772Z,18.17
2022-07-30T22:42:00.789Z,18.40
2022-07-30T22:44:28.843Z,18.23
2022-07-30T22:46:56.647Z,18.33
2022-07-30T22:49:46.072Z,17.90
2022-07-30T22:52:21.999Z,17.57
2022-07-30T22:54:55.475Z,17.23
2022-07-30T22:57:23.560Z,17.33
2022-07-30T22:59:58.700Z,17.00
2022-07-30T23:02:28.295Z,16.47
2022-07-30T23:04:56.414Z,15.50
2022-07-30T23:07:44.245Z,16.20
2022-07-30T23:10:20.775Z,16.07
2022-07-30T23:12:50.909Z,15.60
2022-07-30T23:15:19.650Z,14.93
2022-07-30T23:17:47.529Z,15.80
2022-07-30T23:20:17.501Z,16.53
2022-07-30T23:22:45.171Z,15.80
2022-07-30T23:25:13.476Z,15.57
2022-07-30T23:27:43.041Z,15.70
2022-07-30T23:30:12.302Z,15.50
2022-07-30T23:32:40.700Z,15.40
2022-07-30T23:35:09.681Z,14.97
2022-07-30T23:37:47.678Z,14.70
2022-07-30T23:40:17.084Z,14.30
2022-07-30T23:42:45.952Z,13.70
2022-07-30T23:45:14.493Z,13.27
2022-07-30T23:48:02.081Z,13.43
2022-07-30T23:50:30.586Z,12.90
2022-07-30T23:52:58.297Z,13.27
2022-07-30T23:55:26.899Z,12.90
2022-07-30T23:57:55.936Z,13.27
